sensor_id;sensor_type;location;lat;lon;timestamp;P1;durP1;ratioP1;P2;durP2;ratioP2
75504;SDS011;64085;54.974;73.410;2023-08-06T00:01:41;10.63;;;5.07;;
75504;SDS011;64085;54.974;73.410;2023-08-06T00:04:06;7.00;;;4.80;;
75504;SDS011;64085;54.974;73.410;2023-08-06T00:06:32;6.57;;;5.07;;
75504;SDS011;64085;54.974;73.410;2023-08-06T00:08:57;5.57;;;5.07;;
75504;SDS011;64085;54.974;73.410;2023-08-06T00:11:22;5.10;;;4.25;;
75504;SDS011;64085;54.974;73.410;2023-08-06T00:13:50;5.45;;;4.43;;
75504;SDS011;64085;54.974;73.410;2023-08-06T00:16:16;8.38;;;5.18;;
75504;SDS011;64085;54.974;73.410;2023-08-06T00:18:41;5.15;;;4.03;;
75504;SDS011;64085;54.974;73.410;2023-08-06T00:21:06;7.43;;;4.72;;
75504;SDS011;64085;54.974;73.410;2023-08-06T00:23:32;6.63;;;4.90;;
75504;SDS011;64085;54.974;73.410;2023-08-06T00:25:57;8.73;;;5.32;;
75504;SDS011;64085;54.974;73.410;2023-08-06T00:28:23;9.65;;;5.80;;
75504;SDS011;64085;54.974;73.410;2023-08-06T00:30:57;7.50;;;5.63;;
75504;SDS011;64085;54.974;73.410;2023-08-06T00:33:22;8.05;;;5.55;;
75504;SDS011;64085;54.974;73.410;2023-08-06T00:35:48;6.38;;;5.55;;
75504;SDS011;64085;54.974;73.410;2023-08-06T00:38:17;8.05;;;7.25;;
75504;SDS011;64085;54.974;73.410;2023-08-06T00:40:42;8.00;;;4.60;;
75504;SDS011;64085;54.974;73.410;2023-08-06T00:43:08;7.28;;;5.25;;
75504;SDS011;64085;54.974;73.410;2023-08-06T00:45:37;7.88;;;5.88;;
75504;SDS011;64085;54.974;73.410;2023-08-06T00:48:03;8.57;;;5.63;;
75504;SDS011;64085;54.974;73.410;2023-08-06T00:50:29;9.85;;;6.07;;
75504;SDS011;64085;54.974;73.410;2023-08-06T00:52:55;6.90;;;5.70;;
75504;SDS011;64085;54.974;73.410;2023-08-06T00:55:20;8.60;;;5.82;;
75504;SDS011;64085;54.974;73.410;2023-08-06T00:57:46;6.63;;;5.90;;
75504;SDS011;64085;54.974;73.410;2023-08-06T01:00:11;6.47;;;5.63;;
75504;SDS011;64085;54.974;73.410;2023-08-06T01:02:37;7.93;;;5.43;;
75504;SDS011;64085;54.974;73.410;2023-08-06T01:05:03;8.85;;;6.15;;
75504;SDS011;64085;54.974;73.410;2023-08-06T01:12:27;5.60;;;4.82;;
75504;SDS011;64085;54.974;73.410;2023-08-06T01:15:07;5.32;;;4.75;;
75504;SDS011;64085;54.974;73.410;2023-08-06T01:17:35;11.95;;;4.95;;
75504;SDS011;64085;54.974;73.410;2023-08-06T01:20:01;5.47;;;4.93;;
75504;SDS011;64085;54.974;73.410;2023-08-06T01:22:30;6.82;;;4.43;;
75504;SDS011;64085;54.974;73.410;2023-08-06T01:24:55;7.32;;;4.47;;
75504;SDS011;64085;54.974;73.410;2023-08-06T01:27:25;8.10;;;5.00;;
75504;SDS011;64085;54.974;73.410;2023-08-06T01:29:58;6.97;;;5.10;;
75504;SDS011;64085;54.974;73.410;2023-08-06T01:32:26;5.93;;;4.63;;
75504;SDS011;64085;54.974;73.410;2023-08-06T01:34:54;5.68;;;4.82;;
75504;SDS011;64085;54.974;73.410;2023-08-06T01:37:19;5.97;;;4.90;;
75504;SDS011;64085;54.974;73.410;2023-08-06T01:39:45;5.82;;;4.35;;
75504;SDS011;64085;54.974;73.410;2023-08-06T01:42:10;4.97;;;4.57;;
75504;SDS011;64085;54.974;73.410;2023-08-06T01:44:36;7.00;;;4.95;;
75504;SDS011;64085;54.974;73.410;2023-08-06T01:47:01;9.30;;;4.70;;
75504;SDS011;64085;54.974;73.410;2023-08-06T01:49:27;5.53;;;4.35;;
75504;SDS011;64085;54.974;73.410;2023-08-06T01:51:52;5.15;;;4.53;;
75504;SDS011;64085;54.974;73.410;2023-08-06T01:54:17;6.32;;;4.90;;
75504;SDS011;64085;54.974;73.410;2023-08-06T01:56:43;5.20;;;4.47;;
75504;SDS011;64085;54.974;73.410;2023-08-06T01:59:08;5.88;;;4.70;;
75504;SDS011;64085;54.974;73.410;2023-08-06T02:01:34;6.57;;;5.15;;
75504;SDS011;64085;54.974;73.410;2023-08-06T02:03:59;8.77;;;5.30;;
75504;SDS011;64085;54.974;73.410;2023-08-06T02:06:24;9.05;;;5.25;;
75504;SDS011;64085;54.974;73.410;2023-08-06T02:08:50;5.43;;;4.93;;
75504;SDS011;64085;54.974;73.410;2023-08-06T02:11:15;4.95;;;4.55;;
75504;SDS011;64085;54.974;73.410;2023-08-06T02:13:41;8.30;;;5.43;;
75504;SDS011;64085;54.974;73.410;2023-08-06T02:16:06;7.13;;;5.82;;
75504;SDS011;64085;54.974;73.410;2023-08-06T02:18:32;5.85;;;5.35;;
75504;SDS011;64085;54.974;73.410;2023-08-06T02:20:58;6.18;;;5.28;;
75504;SDS011;64085;54.974;73.410;2023-08-06T02:23:24;7.55;;;5.38;;
75504;SDS011;64085;54.974;73.410;2023-08-06T02:25:56;6.40;;;5.80;;
75504;SDS011;64085;54.974;73.410;2023-08-06T02:28:21;6.80;;;5.78;;
75504;SDS011;64085;54.974;73.410;2023-08-06T02:30:53;5.90;;;5.32;;
75504;SDS011;64085;54.974;73.410;2023-08-06T02:33:18;10.15;;;5.90;;
75504;SDS011;64085;54.974;73.410;2023-08-06T02:35:44;5.97;;;5.47;;
75504;SDS011;64085;54.974;73.410;2023-08-06T02:38:09;6.82;;;6.13;;
75504;SDS011;64085;54.974;73.410;2023-08-06T02:40:34;6.65;;;5.45;;
75504;SDS011;64085;54.974;73.410;2023-08-06T02:43:00;6.90;;;5.70;;
75504;SDS011;64085;54.974;73.410;2023-08-06T02:45:25;6.95;;;6.25;;
75504;SDS011;64085;54.974;73.410;2023-08-06T02:47:51;6.80;;;5.43;;
75504;SDS011;64085;54.974;73.410;2023-08-06T02:50:16;7.63;;;6.38;;
75504;SDS011;64085;54.974;73.410;2023-08-06T02:52:41;8.30;;;6.53;;
75504;SDS011;64085;54.974;73.410;2023-08-06T02:55:07;8.23;;;6.45;;
75504;SDS011;64085;54.974;73.410;2023-08-06T02:57:32;6.75;;;6.15;;
75504;SDS011;64085;54.974;73.410;2023-08-06T02:59:58;7.90;;;7.13;;
75504;SDS011;64085;54.974;73.410;2023-08-06T03:02:23;6.57;;;5.97;;
75504;SDS011;64085;54.974;73.410;2023-08-06T03:04:49;7.05;;;6.45;;
75504;SDS011;64085;54.974;73.410;2023-08-06T03:07:14;7.68;;;6.88;;
75504;SDS011;64085;54.974;73.410;2023-08-06T03:09:39;8.00;;;7.28;;
75504;SDS011;64085;54.974;73.410;2023-08-06T03:12:05;8.65;;;7.15;;
75504;SDS011;64085;54.974;73.410;2023-08-06T03:14:31;8.02;;;7.32;;
75504;SDS011;64085;54.974;73.410;2023-08-06T03:16:56;7.85;;;7.13;;
75504;SDS011;64085;54.974;73.410;2023-08-06T03:19:21;7.35;;;6.65;;
75504;SDS011;64085;54.974;73.410;2023-08-06T03:21:47;7.93;;;7.15;;
75504;SDS011;64085;54.974;73.410;2023-08-06T03:24:13;9.65;;;8.00;;
75504;SDS011;64085;54.974;73.410;2023-08-06T03:26:38;8.90;;;8.10;;
75504;SDS011;64085;54.974;73.410;2023-08-06T03:29:04;8.20;;;7.50;;
75504;SDS011;64085;54.974;73.410;2023-08-06T03:31:29;9.00;;;7.97;;
75504;SDS011;64085;54.974;73.410;2023-08-06T03:33:55;8.75;;;7.82;;
75504;SDS011;64085;54.974;73.410;2023-08-06T03:36:20;9.70;;;8.48;;
75504;SDS011;64085;54.974;73.410;2023-08-06T03:38:45;8.32;;;7.63;;
75504;SDS011;64085;54.974;73.410;2023-08-06T03:41:11;11.10;;;9.52;;
75504;SDS011;64085;54.974;73.410;2023-08-06T03:43:36;9.02;;;8.10;;
75504;SDS011;64085;54.974;73.410;2023-08-06T03:46:02;8.90;;;7.95;;
75504;SDS011;64085;54.974;73.410;2023-08-06T03:48:27;10.38;;;7.53;;
75504;SDS011;64085;54.974;73.410;2023-08-06T03:50:52;9.43;;;8.60;;
75504;SDS011;64085;54.974;73.410;2023-08-06T03:53:18;9.43;;;8.52;;
75504;SDS011;64085;54.974;73.410;2023-08-06T03:55:43;9.60;;;8.52;;
75504;SDS011;64085;54.974;73.410;2023-08-06T03:58:09;8.45;;;7.63;;
75504;SDS011;64085;54.974;73.410;2023-08-06T04:00:34;9.18;;;8.27;;
75504;SDS011;64085;54.974;73.410;2023-08-06T04:03:00;8.48;;;7.68;;
75504;SDS011;64085;54.974;73.410;2023-08-06T04:05:25;8.32;;;7.47;;
75504;SDS011;64085;54.974;73.410;2023-08-06T04:07:50;9.00;;;8.30;;
75504;SDS011;64085;54.974;73.410;2023-08-06T04:10:16;9.23;;;8.27;;
75504;SDS011;64085;54.974;73.410;2023-08-06T04:12:41;10.10;;;9.05;;
75504;SDS011;64085;54.974;73.410;2023-08-06T04:15:07;9.55;;;8.45;;
75504;SDS011;64085;54.974;73.410;2023-08-06T04:17:32;9.95;;;9.05;;
75504;SDS011;64085;54.974;73.410;2023-08-06T04:19:58;10.68;;;9.57;;
75504;SDS011;64085;54.974;73.410;2023-08-06T04:22:24;8.68;;;7.97;;
75504;SDS011;64085;54.974;73.410;2023-08-06T04:24:49;11.02;;;8.93;;
75504;SDS011;64085;54.974;73.410;2023-08-06T04:27:15;9.20;;;8.40;;
75504;SDS011;64085;54.974;73.410;2023-08-06T04:29:41;9.80;;;9.10;;
75504;SDS011;64085;54.974;73.410;2023-08-06T04:32:07;9.77;;;8.73;;
75504;SDS011;64085;54.974;73.410;2023-08-06T04:34:33;9.70;;;8.80;;
75504;SDS011;64085;54.974;73.410;2023-08-06T04:36:58;8.38;;;7.78;;
75504;SDS011;64085;54.974;73.410;2023-08-06T04:39:24;9.55;;;8.73;;
75504;SDS011;64085;54.974;73.410;2023-08-06T04:41:49;9.25;;;8.45;;
75504;SDS011;64085;54.974;73.410;2023-08-06T04:44:15;9.45;;;8.65;;
75504;SDS011;64085;54.974;73.410;2023-08-06T04:46:40;8.98;;;8.13;;
75504;SDS011;64085;54.974;73.410;2023-08-06T04:49:05;9.70;;;9.00;;
75504;SDS011;64085;54.974;73.410;2023-08-06T04:51:31;12.05;;;9.45;;
75504;SDS011;64085;54.974;73.410;2023-08-06T04:53:56;10.20;;;8.27;;
75504;SDS011;64085;54.974;73.410;2023-08-06T04:56:22;9.60;;;8.63;;
75504;SDS011;64085;54.974;73.410;2023-08-06T04:58:49;10.13;;;9.00;;
75504;SDS011;64085;54.974;73.410;2023-08-06T05:01:15;9.68;;;8.93;;
75504;SDS011;64085;54.974;73.410;2023-08-06T05:03:40;8.55;;;7.82;;
75504;SDS011;64085;54.974;73.410;2023-08-06T05:06:06;9.07;;;8.30;;
75504;SDS011;64085;54.974;73.410;2023-08-06T05:08:31;12.80;;;9.60;;
75504;SDS011;64085;54.974;73.410;2023-08-06T05:10:57;10.32;;;9.30;;
75504;SDS011;64085;54.974;73.410;2023-08-06T05:13:22;9.88;;;9.18;;
75504;SDS011;64085;54.974;73.410;2023-08-06T05:15:48;8.68;;;7.88;;
75504;SDS011;64085;54.974;73.410;2023-08-06T05:18:14;11.95;;;9.02;;
75504;SDS011;64085;54.974;73.410;2023-08-06T05:20:40;17.15;;;9.75;;
75504;SDS011;64085;54.974;73.410;2023-08-06T05:23:06;29.35;;;13.57;;
75504;SDS011;64085;54.974;73.410;2023-08-06T05:25:31;22.23;;;12.82;;
75504;SDS011;64085;54.974;73.410;2023-08-06T05:27:56;44.40;;;17.13;;
75504;SDS011;64085;54.974;73.410;2023-08-06T05:30:22;19.13;;;11.48;;
75504;SDS011;64085;54.974;73.410;2023-08-06T05:32:47;19.27;;;11.18;;
75504;SDS011;64085;54.974;73.410;2023-08-06T05:35:13;30.58;;;14.63;;
75504;SDS011;64085;54.974;73.410;2023-08-06T05:37:38;24.70;;;11.35;;
75504;SDS011;64085;54.974;73.410;2023-08-06T05:40:04;25.05;;;12.70;;
75504;SDS011;64085;54.974;73.410;2023-08-06T05:42:29;27.15;;;13.00;;
75504;SDS011;64085;54.974;73.410;2023-08-06T05:44:55;13.48;;;10.32;;
75504;SDS011;64085;54.974;73.410;2023-08-06T05:47:20;27.25;;;13.32;;
75504;SDS011;64085;54.974;73.410;2023-08-06T05:49:46;26.52;;;13.18;;
75504;SDS011;64085;54.974;73.410;2023-08-06T05:52:14;21.02;;;12.25;;
75504;SDS011;64085;54.974;73.410;2023-08-06T05:54:39;36.97;;;15.57;;
75504;SDS011;64085;54.974;73.410;2023-08-06T05:57:05;21.42;;;10.30;;
75504;SDS011;64085;54.974;73.410;2023-08-06T05:59:31;32.60;;;14.38;;
75504;SDS011;64085;54.974;73.410;2023-08-06T06:01:56;22.95;;;13.10;;
75504;SDS011;64085;54.974;73.410;2023-08-06T06:04:22;20.67;;;11.00;;
75504;SDS011;64085;54.974;73.410;2023-08-06T06:06:47;19.52;;;10.15;;
75504;SDS011;64085;54.974;73.410;2023-08-06T06:09:12;13.60;;;10.10;;
75504;SDS011;64085;54.974;73.410;2023-08-06T06:11:38;25.95;;;13.07;;
75504;SDS011;64085;54.974;73.410;2023-08-06T06:14:03;55.95;;;19.80;;
75504;SDS011;64085;54.974;73.410;2023-08-06T06:16:28;21.52;;;10.93;;
75504;SDS011;64085;54.974;73.410;2023-08-06T06:18:54;12.18;;;9.27;;
75504;SDS011;64085;54.974;73.410;2023-08-06T06:21:20;40.25;;;17.27;;
75504;SDS011;64085;54.974;73.410;2023-08-06T06:23:45;34.38;;;14.10;;
75504;SDS011;64085;54.974;73.410;2023-08-06T06:26:11;43.22;;;16.65;;
75504;SDS011;64085;54.974;73.410;2023-08-06T06:28:36;47.50;;;16.13;;
75504;SDS011;64085;54.974;73.410;2023-08-06T06:31:01;32.90;;;13.85;;
75504;SDS011;64085;54.974;73.410;2023-08-06T06:33:27;16.67;;;11.63;;
75504;SDS011;64085;54.974;73.410;2023-08-06T06:35:53;15.15;;;9.18;;
75504;SDS011;64085;54.974;73.410;2023-08-06T06:38:18;30.58;;;12.02;;
75504;SDS011;64085;54.974;73.410;2023-08-06T06:40:44;13.68;;;9.45;;
75504;SDS011;64085;54.974;73.410;2023-08-06T06:43:09;9.15;;;8.25;;
75504;SDS011;64085;54.974;73.410;2023-08-06T06:45:34;9.20;;;7.45;;
75504;SDS011;64085;54.974;73.410;2023-08-06T06:48:00;8.90;;;7.70;;
75504;SDS011;64085;54.974;73.410;2023-08-06T06:50:25;11.95;;;8.07;;
75504;SDS011;64085;54.974;73.410;2023-08-06T06:52:51;8.70;;;7.80;;
75504;SDS011;64085;54.974;73.410;2023-08-06T06:55:17;8.75;;;7.88;;
75504;SDS011;64085;54.974;73.410;2023-08-06T06:57:42;8.95;;;7.38;;
75504;SDS011;64085;54.974;73.410;2023-08-06T07:00:07;10.40;;;8.10;;
75504;SDS011;64085;54.974;73.410;2023-08-06T07:02:33;11.15;;;7.55;;
75504;SDS011;64085;54.974;73.410;2023-08-06T07:04:58;8.35;;;7.50;;
75504;SDS011;64085;54.974;73.410;2023-08-06T07:07:24;9.88;;;7.43;;
75504;SDS011;64085;54.974;73.410;2023-08-06T07:09:49;9.85;;;8.77;;
75504;SDS011;64085;54.974;73.410;2023-08-06T07:12:15;9.80;;;8.65;;
75504;SDS011;64085;54.974;73.410;2023-08-06T07:14:40;11.73;;;8.23;;
75504;SDS011;64085;54.974;73.410;2023-08-06T07:17:06;12.60;;;8.35;;
75504;SDS011;64085;54.974;73.410;2023-08-06T07:19:31;11.18;;;8.43;;
75504;SDS011;64085;54.974;73.410;2023-08-06T07:21:57;10.88;;;8.43;;
75504;SDS011;64085;54.974;73.410;2023-08-06T07:24:22;9.73;;;7.97;;
75504;SDS011;64085;54.974;73.410;2023-08-06T07:26:47;9.18;;;7.80;;
75504;SDS011;64085;54.974;73.410;2023-08-06T07:29:13;9.35;;;7.95;;
75504;SDS011;64085;54.974;73.410;2023-08-06T07:31:39;9.48;;;6.20;;
75504;SDS011;64085;54.974;73.410;2023-08-06T07:34:05;11.32;;;8.23;;
75504;SDS011;64085;54.974;73.410;2023-08-06T07:36:30;8.25;;;7.45;;
75504;SDS011;64085;54.974;73.410;2023-08-06T07:38:57;9.15;;;7.70;;
75504;SDS011;64085;54.974;73.410;2023-08-06T07:42:42;11.98;;;8.73;;
75504;SDS011;64085;54.974;73.410;2023-08-06T07:45:08;8.88;;;6.35;;
75504;SDS011;64085;54.974;73.410;2023-08-06T07:47:35;10.55;;;8.55;;
75504;SDS011;64085;54.974;73.410;2023-08-06T07:50:00;9.25;;;7.90;;
75504;SDS011;64085;54.974;73.410;2023-08-06T07:52:28;12.50;;;9.32;;
75504;SDS011;64085;54.974;73.410;2023-08-06T07:54:54;10.93;;;8.20;;
75504;SDS011;64085;54.974;73.410;2023-08-06T07:57:19;9.00;;;7.57;;
75504;SDS011;64085;54.974;73.410;2023-08-06T07:59:45;9.18;;;8.27;;
75504;SDS011;64085;54.974;73.410;2023-08-06T08:02:10;10.25;;;7.22;;
75504;SDS011;64085;54.974;73.410;2023-08-06T08:04:35;9.25;;;8.18;;
75504;SDS011;64085;54.974;73.410;2023-08-06T08:07:01;10.73;;;8.38;;
75504;SDS011;64085;54.974;73.410;2023-08-06T08:09:27;8.73;;;7.03;;
75504;SDS011;64085;54.974;73.410;2023-08-06T08:11:53;8.60;;;7.50;;
75504;SDS011;64085;54.974;73.410;2023-08-06T08:14:18;9.30;;;6.53;;
75504;SDS011;64085;54.974;73.410;2023-08-06T08:16:43;9.73;;;7.20;;
75504;SDS011;64085;54.974;73.410;2023-08-06T08:19:09;11.57;;;7.22;;
75504;SDS011;64085;54.974;73.410;2023-08-06T08:21:34;11.02;;;7.35;;
75504;SDS011;64085;54.974;73.410;2023-08-06T08:24:00;19.13;;;8.68;;
75504;SDS011;64085;54.974;73.410;2023-08-06T08:26:26;21.13;;;9.48;;
75504;SDS011;64085;54.974;73.410;2023-08-06T08:28:53;20.20;;;8.13;;
75504;SDS011;64085;54.974;73.410;2023-08-06T08:31:18;12.13;;;8.35;;
75504;SDS011;64085;54.974;73.410;2023-08-06T08:33:44;9.90;;;6.47;;
75504;SDS011;64085;54.974;73.410;2023-08-06T08:36:09;8.70;;;6.93;;
75504;SDS011;64085;54.974;73.410;2023-08-06T08:38:35;9.93;;;7.93;;
75504;SDS011;64085;54.974;73.410;2023-08-06T08:41:00;10.52;;;6.53;;
75504;SDS011;64085;54.974;73.410;2023-08-06T08:43:26;8.10;;;6.53;;
75504;SDS011;64085;54.974;73.410;2023-08-06T08:45:53;9.25;;;8.35;;
75504;SDS011;64085;54.974;73.410;2023-08-06T08:48:20;11.15;;;7.63;;
75504;SDS011;64085;54.974;73.410;2023-08-06T08:50:47;10.13;;;7.63;;
75504;SDS011;64085;54.974;73.410;2023-08-06T08:53:14;9.32;;;6.55;;
75504;SDS011;64085;54.974;73.410;2023-08-06T08:55:40;9.93;;;7.75;;
75504;SDS011;64085;54.974;73.410;2023-08-06T08:58:07;9.15;;;6.63;;
75504;SDS011;64085;54.974;73.410;2023-08-06T09:00:33;8.73;;;5.60;;
75504;SDS011;64085;54.974;73.410;2023-08-06T09:02:59;10.77;;;7.50;;
75504;SDS011;64085;54.974;73.410;2023-08-06T09:05:26;7.60;;;5.90;;
75504;SDS011;64085;54.974;73.410;2023-08-06T09:07:58;8.27;;;6.72;;
75504;SDS011;64085;54.974;73.410;2023-08-06T09:10:26;10.00;;;7.57;;
75504;SDS011;64085;54.974;73.410;2023-08-06T09:12:51;11.77;;;8.15;;
75504;SDS011;64085;54.974;73.410;2023-08-06T09:15:19;7.82;;;5.68;;
75504;SDS011;64085;54.974;73.410;2023-08-06T09:17:44;11.13;;;7.60;;
75504;SDS011;64085;54.974;73.410;2023-08-06T09:20:13;10.55;;;7.43;;
75504;SDS011;64085;54.974;73.410;2023-08-06T09:22:39;6.05;;;5.47;;
75504;SDS011;64085;54.974;73.410;2023-08-06T09:25:05;10.13;;;6.60;;
75504;SDS011;64085;54.974;73.410;2023-08-06T09:27:35;25.17;;;10.13;;
75504;SDS011;64085;54.974;73.410;2023-08-06T09:30:00;30.52;;;9.73;;
75504;SDS011;64085;54.974;73.410;2023-08-06T09:32:25;26.17;;;8.68;;
75504;SDS011;64085;54.974;73.410;2023-08-06T09:34:55;7.57;;;5.72;;
75504;SDS011;64085;54.974;73.410;2023-08-06T09:37:21;10.02;;;6.53;;
75504;SDS011;64085;54.974;73.410;2023-08-06T09:39:46;14.77;;;5.72;;
75504;SDS011;64085;54.974;73.410;2023-08-06T09:42:14;22.23;;;8.13;;
75504;SDS011;64085;54.974;73.410;2023-08-06T09:44:40;6.10;;;5.40;;
75504;SDS011;64085;54.974;73.410;2023-08-06T09:47:05;10.85;;;6.60;;
75504;SDS011;64085;54.974;73.410;2023-08-06T09:54:25;6.47;;;4.10;;
75504;SDS011;64085;54.974;73.410;2023-08-06T09:56:55;8.65;;;5.00;;
75504;SDS011;64085;54.974;73.410;2023-08-06T09:59:20;7.32;;;6.18;;
75504;SDS011;64085;54.974;73.410;2023-08-06T10:01:46;9.63;;;5.75;;
75504;SDS011;64085;54.974;73.410;2023-08-06T10:04:12;17.20;;;7.80;;
75504;SDS011;64085;54.974;73.410;2023-08-06T10:06:41;10.27;;;5.80;;
75504;SDS011;64085;54.974;73.410;2023-08-06T10:09:06;10.73;;;6.30;;
75504;SDS011;64085;54.974;73.410;2023-08-06T10:11:33;8.65;;;4.82;;
75504;SDS011;64085;54.974;73.410;2023-08-06T10:14:10;7.25;;;6.55;;
75504;SDS011;64085;54.974;73.410;2023-08-06T10:16:37;7.03;;;5.03;;
75504;SDS011;64085;54.974;73.410;2023-08-06T10:19:04;6.57;;;5.20;;
75504;SDS011;64085;54.974;73.410;2023-08-06T10:21:30;11.65;;;7.05;;
75504;SDS011;64085;54.974;73.410;2023-08-06T10:23:56;8.65;;;5.93;;
75504;SDS011;64085;54.974;73.410;2023-08-06T10:26:26;8.20;;;5.20;;
75504;SDS011;64085;54.974;73.410;2023-08-06T10:28:52;7.35;;;5.80;;
75504;SDS011;64085;54.974;73.410;2023-08-06T10:31:18;10.80;;;6.97;;
75504;SDS011;64085;54.974;73.410;2023-08-06T10:33:47;16.20;;;6.80;;
75504;SDS011;64085;54.974;73.410;2023-08-06T10:36:13;22.17;;;8.43;;
75504;SDS011;64085;54.974;73.410;2023-08-06T10:38:47;10.02;;;4.45;;
75504;SDS011;64085;54.974;73.410;2023-08-06T10:41:17;8.98;;;5.30;;
75504;SDS011;64085;54.974;73.410;2023-08-06T10:43:45;14.35;;;6.47;;
75504;SDS011;64085;54.974;73.410;2023-08-06T10:48:38;10.38;;;5.63;;
75504;SDS011;64085;54.974;73.410;2023-08-06T10:51:07;7.50;;;5.43;;
75504;SDS011;64085;54.974;73.410;2023-08-06T10:53:32;9.77;;;5.65;;
75504;SDS011;64085;54.974;73.410;2023-08-06T10:55:58;15.82;;;5.93;;
75504;SDS011;64085;54.974;73.410;2023-08-06T10:58:23;8.77;;;5.57;;
75504;SDS011;64085;54.974;73.410;2023-08-06T11:00:49;12.35;;;6.30;;
75504;SDS011;64085;54.974;73.410;2023-08-06T11:03:14;19.15;;;7.40;;
75504;SDS011;64085;54.974;73.410;2023-08-06T11:05:40;13.55;;;7.20;;
75504;SDS011;64085;54.974;73.410;2023-08-06T11:08:05;13.95;;;6.82;;
75504;SDS011;64085;54.974;73.410;2023-08-06T11:10:32;7.38;;;4.75;;
75504;SDS011;64085;54.974;73.410;2023-08-06T11:13:03;20.65;;;7.18;;
75504;SDS011;64085;54.974;73.410;2023-08-06T11:15:29;7.22;;;5.15;;
75504;SDS011;64085;54.974;73.410;2023-08-06T11:17:55;9.48;;;5.88;;
75504;SDS011;64085;54.974;73.410;2023-08-06T11:20:20;7.55;;;4.57;;
75504;SDS011;64085;54.974;73.410;2023-08-06T11:22:47;5.93;;;4.22;;
75504;SDS011;64085;54.974;73.410;2023-08-06T11:25:13;7.90;;;5.10;;
75504;SDS011;64085;54.974;73.410;2023-08-06T11:27:38;10.43;;;5.57;;
75504;SDS011;64085;54.974;73.410;2023-08-06T11:30:04;16.08;;;5.32;;
75504;SDS011;64085;54.974;73.410;2023-08-06T11:32:29;11.50;;;5.70;;
75504;SDS011;64085;54.974;73.410;2023-08-06T11:34:55;14.63;;;6.18;;
75504;SDS011;64085;54.974;73.410;2023-08-06T11:37:21;12.75;;;5.38;;
75504;SDS011;64085;54.974;73.410;2023-08-06T11:39:47;8.60;;;4.60;;
75504;SDS011;64085;54.974;73.410;2023-08-06T11:42:15;8.90;;;5.43;;
75504;SDS011;64085;54.974;73.410;2023-08-06T11:44:41;29.80;;;8.77;;
75504;SDS011;64085;54.974;73.410;2023-08-06T11:47:14;16.80;;;6.82;;
75504;SDS011;64085;54.974;73.410;2023-08-06T11:49:43;13.15;;;5.80;;
75504;SDS011;64085;54.974;73.410;2023-08-06T11:52:24;5.07;;;3.50;;
75504;SDS011;64085;54.974;73.410;2023-08-06T11:55:03;5.53;;;3.55;;
75504;SDS011;64085;54.974;73.410;2023-08-06T11:57:31;15.98;;;4.85;;
75504;SDS011;64085;54.974;73.410;2023-08-06T12:00:01;23.27;;;6.70;;
75504;SDS011;64085;54.974;73.410;2023-08-06T12:02:30;9.95;;;5.00;;
75504;SDS011;64085;54.974;73.410;2023-08-06T12:05:03;11.60;;;5.65;;
75504;SDS011;64085;54.974;73.410;2023-08-06T12:07:30;8.93;;;4.93;;
75504;SDS011;64085;54.974;73.410;2023-08-06T12:09:56;5.68;;;3.45;;
75504;SDS011;64085;54.974;73.410;2023-08-06T12:12:22;8.52;;;4.95;;
75504;SDS011;64085;54.974;73.410;2023-08-06T12:14:47;5.20;;;4.63;;
75504;SDS011;64085;54.974;73.410;2023-08-06T12:17:17;3.90;;;3.28;;
75504;SDS011;64085;54.974;73.410;2023-08-06T12:19:44;6.55;;;4.78;;
75504;SDS011;64085;54.974;73.410;2023-08-06T12:22:09;15.85;;;6.75;;
75504;SDS011;64085;54.974;73.410;2023-08-06T12:24:35;16.38;;;7.63;;
75504;SDS011;64085;54.974;73.410;2023-08-06T12:27:00;19.80;;;6.72;;
75504;SDS011;64085;54.974;73.410;2023-08-06T12:29:27;7.75;;;4.65;;
75504;SDS011;64085;54.974;73.410;2023-08-06T12:31:53;9.07;;;4.55;;
75504;SDS011;64085;54.974;73.410;2023-08-06T12:34:18;6.93;;;3.75;;
75504;SDS011;64085;54.974;73.410;2023-08-06T12:36:44;12.27;;;4.57;;
75504;SDS011;64085;54.974;73.410;2023-08-06T12:39:09;7.10;;;4.15;;
75504;SDS011;64085;54.974;73.410;2023-08-06T12:41:35;8.45;;;4.00;;
75504;SDS011;64085;54.974;73.410;2023-08-06T12:44:01;6.90;;;3.67;;
75504;SDS011;64085;54.974;73.410;2023-08-06T12:46:26;19.55;;;6.38;;
75504;SDS011;64085;54.974;73.410;2023-08-06T12:48:52;7.85;;;4.18;;
75504;SDS011;64085;54.974;73.410;2023-08-06T12:51:17;3.08;;;2.78;;
75504;SDS011;64085;54.974;73.410;2023-08-06T12:53:42;16.80;;;4.82;;
75504;SDS011;64085;54.974;73.410;2023-08-06T12:56:08;6.95;;;3.20;;
75504;SDS011;64085;54.974;73.410;2023-08-06T12:58:33;4.35;;;2.63;;
75504;SDS011;64085;54.974;73.410;2023-08-06T13:00:59;8.00;;;3.55;;
75504;SDS011;64085;54.974;73.410;2023-08-06T13:03:24;3.42;;;2.40;;
75504;SDS011;64085;54.974;73.410;2023-08-06T13:05:49;4.72;;;2.90;;
75504;SDS011;64085;54.974;73.410;2023-08-06T13:08:15;5.45;;;3.83;;
75504;SDS011;64085;54.974;73.410;2023-08-06T13:10:40;4.57;;;2.38;;
75504;SDS011;64085;54.974;73.410;2023-08-06T13:13:06;3.88;;;2.92;;
75504;SDS011;64085;54.974;73.410;2023-08-06T13:15:32;14.88;;;4.88;;
75504;SDS011;64085;54.974;73.410;2023-08-06T13:17:57;3.15;;;2.83;;
75504;SDS011;64085;54.974;73.410;2023-08-06T13:20:23;2.80;;;2.50;;
75504;SDS011;64085;54.974;73.410;2023-08-06T13:22:49;8.25;;;3.05;;
75504;SDS011;64085;54.974;73.410;2023-08-06T13:25:18;16.88;;;5.78;;
75504;SDS011;64085;54.974;73.410;2023-08-06T13:27:43;5.65;;;3.20;;
75504;SDS011;64085;54.974;73.410;2023-08-06T13:30:10;3.65;;;2.20;;
75504;SDS011;64085;54.974;73.410;2023-08-06T13:32:36;6.43;;;2.83;;
75504;SDS011;64085;54.974;73.410;2023-08-06T13:35:04;4.40;;;3.22;;
75504;SDS011;64085;54.974;73.410;2023-08-06T13:37:30;4.93;;;3.30;;
75504;SDS011;64085;54.974;73.410;2023-08-06T13:39:55;3.95;;;2.90;;
75504;SDS011;64085;54.974;73.410;2023-08-06T13:42:23;2.13;;;1.90;;
75504;SDS011;64085;54.974;73.410;2023-08-06T13:44:48;6.50;;;3.25;;
75504;SDS011;64085;54.974;73.410;2023-08-06T13:47:14;9.18;;;5.68;;
75504;SDS011;64085;54.974;73.410;2023-08-06T13:49:39;4.35;;;3.08;;
75504;SDS011;64085;54.974;73.410;2023-08-06T13:52:04;3.30;;;2.72;;
75504;SDS011;64085;54.974;73.410;2023-08-06T13:54:30;3.20;;;2.17;;
75504;SDS011;64085;54.974;73.410;2023-08-06T13:56:55;6.13;;;2.92;;
75504;SDS011;64085;54.974;73.410;2023-08-06T13:59:21;9.30;;;3.95;;
75504;SDS011;64085;54.974;73.410;2023-08-06T14:01:49;7.80;;;3.33;;
75504;SDS011;64085;54.974;73.410;2023-08-06T14:04:17;3.95;;;2.33;;
75504;SDS011;64085;54.974;73.410;2023-08-06T14:06:42;3.63;;;2.25;;
75504;SDS011;64085;54.974;73.410;2023-08-06T14:09:08;3.30;;;2.47;;
75504;SDS011;64085;54.974;73.410;2023-08-06T14:11:33;5.25;;;2.65;;
75504;SDS011;64085;54.974;73.410;2023-08-06T14:13:59;4.78;;;3.20;;
75504;SDS011;64085;54.974;73.410;2023-08-06T14:16:25;4.95;;;3.75;;
75504;SDS011;64085;54.974;73.410;2023-08-06T14:18:50;6.60;;;3.13;;
75504;SDS011;64085;54.974;73.410;2023-08-06T14:21:16;3.33;;;1.73;;
75504;SDS011;64085;54.974;73.410;2023-08-06T14:23:41;5.50;;;3.80;;
75504;SDS011;64085;54.974;73.410;2023-08-06T14:26:07;6.20;;;3.33;;
75504;SDS011;64085;54.974;73.410;2023-08-06T14:28:32;3.45;;;2.42;;
75504;SDS011;64085;54.974;73.410;2023-08-06T14:30:58;3.58;;;2.78;;
75504;SDS011;64085;54.974;73.410;2023-08-06T14:33:23;4.13;;;2.38;;
75504;SDS011;64085;54.974;73.410;2023-08-06T14:35:49;4.93;;;2.40;;